Time;durP1;ratioP1;P1;durP2;ratioP2;P2;SDS_P1;SDS_P2;PMS_P1;PMS_P2;Temp;Humidity;BMP_temperature;BMP_pressure;BME280_temperature;BME280_humidity;BME280_pressure;Samples;Min_cycle;Max_cycle;Signal;HPM_P1;HPM_P2
2022/04/19 00:00:34;;;;;;;3.27;2.23;;;6.90;99.90;;;;;;5095575;28;20266;-72
2022/04/19 00:03:02;;;;;;;2.87;2.07;;;6.90;1.00;;;;;;5095529;28;20175;-72
2022/04/19 00:05:28;;;;;;;3.33;2.23;;;6.90;99.90;;;;;;5094178;28;20735;-73
2022/04/19 00:07:56;;;;;;;4.73;2.23;;;6.90;1.00;;;;;;5096474;28;20241;-71
2022/04/19 00:10:22;;;;;;;2.80;2.00;;;6.90;1.00;;;;;;5095385;28;20173;-72
2022/04/19 00:12:47;;;;;;;2.43;1.97;;;6.80;1.00;;;;;;5093964;28;20181;-71
2022/04/19 00:15:15;;;;;;;4.00;2.53;;;6.80;99.90;;;;;;5093843;28;20186;-72
2022/04/19 00:17:41;;;;;;;3.27;1.90;;;6.70;99.90;;;;;;5093916;28;20185;-73
2022/04/19 00:20:07;;;;;;;2.97;2.10;;;6.70;1.00;;;;;;5093728;28;20182;-72
2022/04/19 00:22:33;;;;;;;2.77;2.07;;;6.70;1.00;;;;;;5095293;28;20166;-72
2022/04/19 00:24:59;;;;;;;4.23;2.20;;;6.60;91.30;;;;;;5093627;28;20225;-72
2022/04/19 00:27:25;;;;;;;3.97;2.00;;;6.60;99.90;;;;;;5094957;28;20167;-73
2022/04/19 00:29:53;;;;;;;5.13;2.60;;;6.60;99.90;;;;;;5093591;28;20193;-73
2022/04/19 00:32:19;;;;;;;4.57;2.77;;;6.50;1.00;;;;;;5094965;28;20248;-73
2022/04/19 00:34:46;;;;;;;3.50;2.43;;;6.50;1.00;;;;;;5094918;28;20669;-72
2022/04/19 00:37:13;;;;;;;3.07;2.17;;;6.50;1.00;;;;;;5093612;28;20197;-73
2022/04/19 00:39:39;;;;;;;4.07;2.40;;;6.40;1.00;;;;;;5094794;28;20175;-71
2022/04/19 00:42:07;;;;;;;3.67;2.50;;;6.40;1.00;;;;;;5093446;28;20203;-73
2022/04/19 00:44:37;;;;;;;4.37;2.40;;;6.40;1.00;;;;;;5094694;28;20201;-71
2022/04/19 00:47:07;;;;;;;4.47;2.87;;;6.40;1.00;;;;;;5093478;28;20174;-73
2022/04/19 00:49:34;;;;;;;2.60;2.27;;;6.40;1.00;;;;;;5094611;28;20201;-72
2022/04/19 00:52:00;;;;;;;2.60;2.20;;;6.40;1.00;;;;;;5093192;28;20178;-73
2022/04/19 00:54:26;;;;;;;2.83;2.10;;;6.40;1.00;;;;;;5094459;28;20201;-72
2022/04/19 00:56:53;;;;;;;2.43;2.20;;;6.40;37.90;;;;;;5113462;28;20181;-73
2022/04/19 00:59:21;;;;;;;3.20;2.00;;;6.30;80.10;;;;;;5114893;28;20714;-73
2022/04/19 01:01:46;;;;;;;3.90;2.20;;;6.30;84.00;;;;;;5114905;28;20193;-72
2022/04/19 01:04:12;;;;;;;4.13;2.53;;;6.30;99.90;;;;;;5096337;28;20545;-73
2022/04/19 01:06:38;;;;;;;4.83;2.40;;;6.30;99.90;;;;;;5114693;28;20174;-72
2022/04/19 01:09:03;;;;;;;3.57;2.33;;;6.30;99.90;;;;;;5096225;28;20747;-73
2022/04/19 01:14:18;;;;;;;3.57;2.47;;;6.20;99.90;;;;;;5114883;28;20204;-72
2022/04/19 01:16:44;;;;;;;3.77;2.40;;;6.20;99.90;;;;;;5115023;28;20188;-72
2022/04/19 01:19:15;;;;;;;3.53;2.57;;;6.20;99.90;;;;;;5096118;28;20541;-73
2022/04/19 01:22:01;;;;;;;4.27;2.63;;;6.20;99.90;;;;;;5096145;28;20180;-73
2022/04/19 01:24:27;;;;;;;2.83;2.20;;;6.20;99.90;;;;;;5114781;28;20207;-72
2022/04/19 01:27:00;;;;;;;7.17;2.50;;;6.20;99.90;;;;;;5114323;28;20316;-73
2022/04/19 01:29:26;;;;;;;2.90;2.30;;;6.20;99.90;;;;;;5095833;28;20202;-71
2022/04/19 01:31:53;;;;;;;4.37;2.37;;;6.20;99.90;;;;;;5114229;28;20282;-73
2022/04/19 01:34:19;;;;;;;4.70;2.30;;;6.20;99.90;;;;;;5114261;28;20201;-73
2022/04/19 01:36:45;;;;;;;2.70;2.07;;;6.20;99.90;;;;;;5114606;28;20248;-72
2022/04/19 01:39:11;;;;;;;5.90;2.07;;;6.20;99.90;;;;;;5113983;28;20174;-72
2022/04/19 01:41:38;;;;;;;5.00;2.47;;;6.20;99.90;;;;;;5095339;28;20673;-73
2022/04/19 01:44:05;;;;;;;4.73;2.30;;;6.20;99.90;;;;;;5114024;28;20190;-73
2022/04/19 01:46:34;;;;;;;2.90;2.10;;;6.10;99.90;;;;;;5095684;28;20188;-72
2022/04/19 01:49:04;;;;;;;4.47;2.17;;;6.10;99.90;;;;;;5095480;28;20208;-73
2022/04/19 01:51:30;;;;;;;2.77;2.07;;;6.10;99.90;;;;;;5113827;28;20165;-72
2022/04/19 01:53:55;;;;;;;5.00;2.53;;;6.10;99.90;;;;;;5095496;28;20251;-75
2022/04/19 01:56:21;;;;;;;5.73;2.20;;;6.10;99.90;;;;;;5095774;28;20186;-73
2022/04/19 01:58:48;;;;;;;3.20;2.53;;;6.10;99.90;;;;;;5113707;28;20289;-72
2022/04/19 02:01:14;;;;;;;3.97;2.63;;;6.10;99.90;;;;;;5113720;28;20174;-73
2022/04/19 02:03:39;;;;;;;4.83;3.03;;;6.10;99.90;;;;;;5095326;28;20251;-73
2022/04/19 02:06:11;;;;;;;5.63;3.07;;;6.00;99.90;;;;;;5095249;28;20652;-72
2022/04/19 02:08:37;;;;;;;4.67;2.67;;;6.00;99.90;;;;;;5095295;28;20297;-73
2022/04/19 02:11:03;;;;;;;3.30;2.30;;;5.90;99.90;;;;;;5113569;28;20204;-73
2022/04/19 02:13:30;;;;;;;2.20;2.00;;;5.90;99.90;;;;;;5095200;28;20228;-73
2022/04/19 02:15:58;;;;;;;4.27;2.13;;;5.80;99.90;;;;;;5113536;28;20637;-73
2022/04/19 02:18:24;;;;;;;3.87;2.60;;;5.80;99.90;;;;;;5095107;28;20188;-73
2022/04/19 02:20:50;;;;;;;5.93;2.40;;;5.80;99.90;;;;;;5113385;28;20662;-75
2022/04/19 02:23:15;;;;;;;5.40;2.43;;;5.80;99.90;;;;;;5094990;28;20201;-73
2022/04/19 02:25:42;;;;;;;4.50;2.70;;;5.70;99.90;;;;;;5113240;28;20177;-73
2022/04/19 02:28:10;;;;;;;6.73;2.97;;;5.70;99.90;;;;;;5113372;28;20197;-73
2022/04/19 02:30:36;;;;;;;4.43;3.17;;;5.70;99.90;;;;;;5113215;28;20208;-72
2022/04/19 02:33:02;;;;;;;4.50;3.10;;;5.60;99.90;;;;;;5094759;28;20173;-73
2022/04/19 02:35:28;;;;;;;8.50;3.30;;;5.50;99.90;;;;;;5113386;28;20173;-73
2022/04/19 02:37:56;;;;;;;4.50;3.23;;;5.50;99.90;;;;;;5113178;28;20165;-72
2022/04/19 02:40:23;;;;;;;8.17;3.30;;;5.50;99.90;;;;;;5113293;28;20177;-73
2022/04/19 02:42:51;;;;;;;5.30;3.00;;;5.50;99.90;;;;;;5094596;28;20223;-73
2022/04/19 02:45:19;;;;;;;8.00;3.43;;;5.40;99.90;;;;;;5112966;28;20184;-73
2022/04/19 02:47:45;;;;;;;5.33;3.47;;;5.40;99.90;;;;;;5112875;28;20175;-72
2022/04/19 02:50:11;;;;;;;7.13;2.67;;;5.40;99.90;;;;;;5094528;28;20264;-73
2022/04/19 02:52:36;;;;;;;3.47;2.67;;;5.40;99.90;;;;;;5112098;28;20201;-72
2022/04/19 02:55:02;;;;;;;4.93;3.37;;;5.30;99.90;;;;;;5112485;28;20213;-72
2022/04/19 02:57:28;;;;;;;4.23;3.33;;;5.30;99.90;;;;;;5112804;28;20191;-73
2022/04/19 02:59:53;;;;;;;4.50;3.00;;;5.30;99.90;;;;;;5094508;28;20234;-73
2022/04/19 03:02:20;;;;;;;5.43;3.33;;;5.30;99.90;;;;;;5112748;28;20187;-73
2022/04/19 03:04:45;;;;;;;4.90;3.17;;;5.20;99.90;;;;;;5112871;28;20190;-73
2022/04/19 03:07:14;;;;;;;6.90;3.33;;;5.20;99.90;;;;;;5094333;28;20184;-73
2022/04/19 03:09:42;;;;;;;3.47;2.87;;;5.10;99.90;;;;;;5112879;28;20561;-73
2022/04/19 03:12:12;;;;;;;4.73;3.13;;;5.20;99.90;;;;;;5112697;28;20236;-73
2022/04/19 03:14:38;;;;;;;5.40;2.70;;;5.20;99.90;;;;;;5112486;28;20196;-73
2022/04/19 03:17:04;;;;;;;3.50;2.83;;;5.10;99.90;;;;;;5112516;28;20174;-73
2022/04/19 03:19:29;;;;;;;4.43;2.97;;;5.10;99.90;;;;;;5112828;28;20173;-73
2022/04/19 03:21:55;;;;;;;4.10;3.27;;;5.10;99.90;;;;;;5112508;28;20270;-73
2022/04/19 03:29:49;;;;;;;4.07;3.17;;;5.00;99.90;;;;;;5112243;28;20227;-73
2022/04/19 03:32:15;;;;;;;3.67;2.83;;;5.00;99.90;;;;;;5112113;28;20197;-75
2022/04/19 03:34:41;;;;;;;6.57;3.40;;;5.00;99.90;;;;;;5112478;28;20189;-73
2022/04/19 03:37:06;;;;;;;4.27;3.07;;;5.00;99.90;;;;;;5112385;28;20192;-73
2022/04/19 03:39:32;;;;;;;4.37;2.93;;;5.00;99.90;;;;;;5094000;28;20181;-72
2022/04/19 03:41:58;;;;;;;4.00;2.53;;;5.00;99.90;;;;;;5112908;28;20209;-73
2022/04/19 03:44:25;;;;;;;5.97;3.20;;;4.90;99.90;;;;;;5094002;28;20201;-73
2022/04/19 03:47:09;;;;;;;5.37;3.30;;;4.90;99.90;;;;;;5112607;28;20249;-73
2022/04/19 03:49:40;;;;;;;4.80;3.47;;;4.90;99.90;;;;;;5112249;28;20250;-73
2022/04/19 03:52:07;;;;;;;3.97;3.10;;;4.80;99.90;;;;;;5093921;28;20189;-73
2022/04/19 03:54:34;;;;;;;6.90;3.00;;;4.80;99.90;;;;;;5094507;28;20200;-72
2022/04/19 03:57:07;;;;;;;5.33;3.27;;;4.80;99.90;;;;;;5111540;28;20189;-73
2022/04/19 03:59:35;;;;;;;4.77;3.00;;;4.80;99.90;;;;;;5111919;28;20204;-72
2022/04/19 04:02:00;;;;;;;4.10;3.07;;;4.70;99.90;;;;;;5093943;28;20224;-73
2022/04/19 04:04:30;;;;;;;4.27;2.87;;;4.70;99.90;;;;;;5113535;28;20268;-73
2022/04/19 04:06:57;;;;;;;5.70;3.17;;;4.70;99.90;;;;;;5116514;28;20161;-73
2022/04/19 04:09:23;;;;;;;5.20;2.77;;;4.60;99.90;;;;;;5115911;28;20193;-73
2022/04/19 04:11:49;;;;;;;7.60;3.87;;;4.60;99.90;;;;;;5115829;28;20181;-73
2022/04/19 04:14:14;;;;;;;4.37;3.30;;;4.60;99.90;;;;;;5115747;28;20197;-73
2022/04/19 04:16:40;;;;;;;4.77;3.17;;;4.60;99.90;;;;;;5097497;28;20571;-74
2022/04/19 04:19:06;;;;;;;7.97;3.87;;;4.50;99.90;;;;;;5115756;28;20185;-73
2022/04/19 04:21:31;;;;;;;7.87;3.80;;;4.60;99.90;;;;;;5115633;28;20189;-73
2022/04/19 04:23:57;;;;;;;5.70;3.43;;;4.50;99.90;;;;;;5115622;28;20630;-73
2022/04/19 04:26:22;;;;;;;6.47;3.67;;;4.50;99.90;;;;;;5115784;28;20696;-73
2022/04/19 04:28:48;;;;;;;4.50;3.27;;;4.50;99.90;;;;;;5115403;28;20201;-73
2022/04/19 04:31:13;;;;;;;5.37;3.60;;;4.50;99.90;;;;;;5115703;28;20534;-73
2022/04/19 04:33:39;;;;;;;4.47;3.40;;;4.50;99.90;;;;;;5115472;28;20186;-73
2022/04/19 04:36:05;;;;;;;4.63;3.70;;;4.40;99.90;;;;;;5115534;28;20190;-73
2022/04/19 04:38:30;;;;;;;6.33;3.90;;;4.40;99.90;;;;;;5115322;28;20178;-72
2022/04/19 04:40:56;;;;;;;5.43;3.70;;;4.40;99.90;;;;;;5096843;28;20190;-73
2022/04/19 04:43:21;;;;;;;5.40;3.40;;;4.40;99.90;;;;;;5115109;28;20197;-73
2022/04/19 04:49:35;;;;;;;4.63;3.50;;;4.30;99.90;;;;;;5115205;28;20184;-74
2022/04/19 04:51:16;;;;;;;5.20;3.10;;;4.30;99.90;;;;;;5105434;28;20223;-75
2022/04/19 04:53:42;;;;;;;7.60;3.10;;;4.30;99.90;;;;;;5085263;28;20190;-74
2022/04/19 04:56:07;;;;;;;4.63;3.57;;;4.40;99.90;;;;;;5085826;28;20204;-74
2022/04/19 04:58:33;;;;;;;5.10;3.77;;;4.40;99.90;;;;;;5105216;28;20220;-74
2022/04/19 05:00:59;;;;;;;4.70;2.97;;;4.40;99.90;;;;;;5102750;28;20269;-74
2022/04/19 05:03:24;;;;;;;6.23;3.67;;;4.40;99.90;;;;;;5100957;28;20594;-74
2022/04/19 05:05:49;;;;;;;4.63;3.07;;;4.50;99.90;;;;;;5085496;28;20178;-74
2022/04/19 05:08:18;;;;;;;6.53;3.20;;;4.40;99.90;;;;;;5113062;28;20194;-74
2022/04/19 05:10:43;;;;;;;5.97;3.33;;;4.40;99.90;;;;;;5104716;28;20167;-73
2022/04/19 05:13:09;;;;;;;4.33;3.20;;;4.50;99.90;;;;;;5085656;28;20197;-73
2022/04/19 05:15:35;;;;;;;5.47;3.37;;;4.50;99.90;;;;;;5104165;28;20193;-75
2022/04/19 05:18:01;;;;;;;7.60;3.43;;;4.50;99.90;;;;;;5103013;28;20186;-74
2022/04/19 05:20:26;;;;;;;6.10;3.60;;;4.50;99.90;;;;;;5103665;28;20182;-74
2022/04/19 05:22:52;;;;;;;6.77;3.60;;;4.60;99.90;;;;;;5104505;28;20213;-74
2022/04/19 05:25:17;;;;;;;8.63;3.90;;;4.60;99.90;;;;;;5092974;28;20178;-74
2022/04/19 05:27:43;;;;;;;7.77;4.00;;;4.70;99.90;;;;;;5103615;28;20182;-72
2022/04/19 05:30:09;;;;;;;7.40;4.47;;;4.70;99.90;;;;;;5104251;28;20174;-74
2022/04/19 05:32:34;;;;;;;6.97;4.53;;;4.70;99.90;;;;;;5102376;28;20599;-74
2022/04/19 05:35:00;;;;;;;4.73;3.83;;;4.80;99.90;;;;;;5103696;28;20287;-73
2022/04/19 05:37:26;;;;;;;5.67;4.30;;;4.80;99.90;;;;;;5111450;28;20550;-74
2022/04/19 05:39:51;;;;;;;5.20;4.30;;;4.80;99.90;;;;;;5103121;28;20179;-74
2022/04/19 05:42:17;;;;;;;11.73;5.10;;;4.90;99.90;;;;;;5076564;28;20226;-74
2022/04/19 05:44:43;;;;;;;8.40;5.07;;;4.90;99.90;;;;;;5085612;28;20201;-73
2022/04/19 05:47:09;;;;;;;6.57;4.87;;;5.00;99.90;;;;;;5083738;28;20175;-74
2022/04/19 05:49:35;;;;;;;6.70;5.00;;;5.10;99.90;;;;;;5085314;28;20193;-73
2022/04/19 05:52:01;;;;;;;5.70;4.70;;;5.10;99.90;;;;;;5096081;28;20269;-73
2022/04/19 05:54:27;;;;;;;10.43;5.97;;;5.10;99.90;;;;;;5093298;28;20194;-73
2022/04/19 05:56:53;;;;;;;8.73;5.47;;;5.20;99.90;;;;;;5093184;28;20186;-73
2022/04/19 05:59:18;;;;;;;11.33;7.10;;;5.30;99.90;;;;;;5093370;28;20663;-74
2022/04/19 06:07:12;;;;;;;8.10;6.10;;;5.60;99.90;;;;;;5093682;28;20174;-73
2022/04/19 06:09:38;;;;;;;7.10;5.83;;;5.70;99.90;;;;;;5093014;28;20315;-73
2022/04/19 06:12:04;;;;;;;9.77;5.87;;;5.80;99.90;;;;;;5108766;28;20311;-72
2022/04/19 06:14:30;;;;;;;9.00;6.27;;;5.90;99.90;;;;;;5092874;28;20736;-73
2022/04/19 06:16:55;;;;;;;12.47;6.87;;;6.00;99.90;;;;;;5108568;28;20202;-74
2022/04/19 06:19:22;;;;;;;8.33;6.37;;;6.10;99.90;;;;;;5093024;28;20520;-74
2022/04/19 06:21:48;;;;;;;11.20;5.60;;;6.20;99.90;;;;;;5123362;22;20209;-93
2022/04/19 06:24:13;;;;;;;8.33;5.67;;;6.30;99.90;;;;;;5119529;28;20170;-92
2022/04/19 06:26:39;;;;;;;8.40;6.33;;;6.50;92.60;;;;;;5118127;28;20181;-93
2022/04/19 06:29:06;;;;;;;9.10;6.90;;;6.60;1.00;;;;;;5119454;28;20205;-91
2022/04/19 06:31:32;;;;;;;9.37;6.20;;;6.90;1.00;;;;;;5102106;28;20188;-92
2022/04/19 06:33:57;;;;;;;9.23;5.90;;;7.00;1.00;;;;;;5118856;28;20209;-92
2022/04/19 06:36:23;;;;;;;9.67;6.33;;;7.30;16.90;;;;;;5124909;22;21635;-73
2022/04/19 06:38:48;;;;;;;10.90;6.70;;;7.30;99.90;;;;;;5111815;28;20180;-76
2022/04/19 06:41:14;;;;;;;9.70;6.43;;;7.40;1.00;;;;;;5113345;28;20258;-73
2022/04/19 06:43:39;;;;;;;9.57;6.53;;;7.60;99.90;;;;;;5113563;28;20188;-73
2022/04/19 06:46:08;;;;;;;7.00;5.50;;;7.70;1.00;;;;;;5113293;28;20235;-73
2022/04/19 06:48:34;;;;;;;8.33;6.00;;;7.90;99.90;;;;;;5113208;28;20199;-74
2022/04/19 06:51:00;;;;;;;7.20;5.60;;;8.10;99.90;;;;;;5113128;28;20186;-73
2022/04/19 06:53:29;;;;;;;10.63;6.13;;;8.30;1.00;;;;;;5113141;28;20659;-73
2022/04/19 06:55:56;;;;;;;10.03;5.93;;;8.40;99.90;;;;;;5113499;28;20174;-74
2022/04/19 06:58:21;;;;;;;8.47;5.70;;;8.60;99.90;;;;;;5094729;28;20280;-73
2022/04/19 07:00:47;;;;;;;8.50;5.70;;;8.80;1.00;;;;;;5094715;28;20633;-73
2022/04/19 07:03:13;;;;;;;7.13;4.90;;;9.00;98.80;;;;;;5113076;28;20190;-73
2022/04/19 07:05:39;;;;;;;8.20;5.83;;;9.20;58.00;;;;;;5113288;28;20189;-73
2022/04/19 07:08:05;;;;;;;9.63;5.07;;;9.30;99.90;;;;;;5095026;28;20240;-74
2022/04/19 07:10:31;;;;;;;7.67;5.43;;;9.40;1.00;;;;;;5112963;28;20275;-73
2022/04/19 07:12:56;;;;;;;7.73;5.60;;;9.50;1.00;;;;;;5113696;28;20740;-74
2022/04/19 07:15:22;;;;;;;11.63;5.33;;;9.70;1.00;;;;;;5094864;28;20181;-73
2022/04/19 07:17:47;;;;;;;7.87;5.77;;;9.90;99.90;;;;;;5112951;28;20249;-73
2022/04/19 07:28:25;;;;;;;10.17;5.80;;;10.40;99.90;;;;;;5113282;28;20243;-72
2022/04/19 07:30:51;;;;;;;9.00;5.43;;;10.50;99.90;;;;;;5113064;28;20189;-73
2022/04/19 07:33:17;;;;;;;8.37;5.87;;;10.60;99.90;;;;;;5113009;28;20667;-74
2022/04/19 07:35:44;;;;;;;8.30;5.67;;;10.70;99.90;;;;;;5113218;28;20165;-74
2022/04/19 07:38:10;;;;;;;9.87;5.50;;;10.90;1.00;;;;;;5094609;28;20193;-71
2022/04/19 07:40:36;;;;;;;9.10;6.37;;;11.00;30.10;;;;;;5098078;28;20312;-74
2022/04/19 07:43:02;;;;;;;10.50;5.60;;;11.10;99.90;;;;;;5117338;28;20257;-74
2022/04/19 07:45:29;;;;;;;8.67;5.87;;;11.20;1.00;;;;;;5116986;28;20184;-74
2022/04/19 07:47:54;;;;;;;7.07;5.03;;;11.30;1.00;;;;;;5116855;28;20181;-75
2022/04/19 07:50:20;;;;;;;10.03;5.63;;;11.30;2.00;;;;;;5116818;28;20201;-75
2022/04/19 07:52:46;;;;;;;7.70;5.57;;;11.40;1.00;;;;;;5117337;28;20177;-75
2022/04/19 07:55:11;;;;;;;7.77;5.53;;;11.60;1.00;;;;;;5098521;28;20613;-74
2022/04/19 07:57:37;;;;;;;8.67;5.03;;;11.80;1.00;;;;;;5098404;28;20178;-73
2022/04/19 08:00:04;;;;;;;6.10;4.90;;;11.80;1.00;;;;;;5116417;28;20178;-74
2022/04/19 08:02:30;;;;;;;7.10;4.90;;;12.00;1.00;;;;;;5116694;28;20220;-75
2022/04/19 08:04:56;;;;;;;8.00;5.47;;;12.10;1.00;;;;;;5098207;28;20664;-74
2022/04/19 08:07:22;;;;;;;8.63;5.50;;;12.20;1.00;;;;;;5116515;28;20238;-74
2022/04/19 08:09:47;;;;;;;9.60;5.77;;;12.30;99.90;;;;;;5116226;28;20266;-74
2022/04/19 08:12:13;;;;;;;8.07;6.17;;;12.30;99.90;;;;;;5116249;28;20208;-74
2022/04/19 08:14:41;;;;;;;10.60;5.90;;;12.40;99.90;;;;;;5098178;28;20230;-74
2022/04/19 08:17:07;;;;;;;11.80;5.47;;;12.50;99.90;;;;;;5097900;28;20178;-74
2022/04/19 08:19:33;;;;;;;8.10;5.67;;;12.60;99.90;;;;;;5116251;28;20220;-74
2022/04/19 08:21:58;;;;;;;8.73;5.73;;;12.70;99.90;;;;;;5116073;28;20206;-74
2022/04/19 08:24:24;;;;;;;10.00;6.20;;;12.80;99.90;;;;;;5116131;28;20222;-74
2022/04/19 08:26:49;;;;;;;9.60;5.90;;;12.90;99.90;;;;;;5116115;28;20193;-73
2022/04/19 08:29:15;;;;;;;8.87;6.00;;;13.00;99.90;;;;;;5115943;28;20685;-74
2022/04/19 08:31:40;;;;;;;8.87;4.97;;;13.10;99.90;;;;;;5097609;28;20669;-74
2022/04/19 08:34:06;;;;;;;9.37;5.53;;;13.20;99.90;;;;;;5115900;28;20193;-74
2022/04/19 08:36:31;;;;;;;7.80;6.03;;;13.30;99.90;;;;;;5097639;28;20698;-72
2022/04/19 08:38:57;;;;;;;5.93;4.90;;;13.30;99.90;;;;;;5116047;28;20200;-73
2022/04/19 08:41:22;;;;;;;9.13;4.93;;;13.60;99.90;;;;;;5115742;28;20201;-73
2022/04/19 08:43:52;;;;;;;7.67;5.17;;;13.50;54.30;;;;;;5115808;28;20312;-73
2022/04/19 08:46:18;;;;;;;8.30;4.70;;;13.60;1.00;;;;;;5097515;28;20276;-73
2022/04/19 08:48:44;;;;;;;7.00;4.93;;;13.70;1.00;;;;;;5115638;28;20221;-74
2022/04/19 08:51:12;;;;;;;7.77;5.17;;;13.80;1.00;;;;;;5114413;28;20186;-74
2022/04/19 08:59:07;;;;;;;10.60;4.83;;;14.10;1.00;;;;;;5115554;28;20173;-74
2022/04/19 09:01:35;;;;;;;7.23;5.00;;;14.20;1.00;;;;;;5115497;28;20197;-73
2022/04/19 09:04:04;;;;;;;9.60;5.13;;;14.30;1.00;;;;;;5115462;28;20177;-74
2022/04/19 09:06:50;;;;;;;6.20;4.60;;;14.30;1.00;;;;;;5115382;28;20180;-73
2022/04/19 09:09:15;;;;;;;7.07;4.70;;;14.40;1.00;;;;;;5115342;28;20197;-74
2022/04/19 09:11:41;;;;;;;11.67;5.03;;;14.50;1.00;;;;;;5115246;28;20193;-74
2022/04/19 09:14:07;;;;;;;7.30;5.10;;;14.60;1.00;;;;;;5096943;28;20613;-74
2022/04/19 09:16:33;;;;;;;6.80;4.93;;;14.70;1.00;;;;;;5115463;28;20582;-74
2022/04/19 09:18:58;;;;;;;6.83;4.53;;;14.70;1.00;;;;;;5115168;28;20174;-74
2022/04/19 09:21:37;;;;;;;6.87;4.73;;;14.70;1.00;;;;;;5115098;28;20229;-74
2022/04/19 09:24:16;;;;;;;5.27;4.33;;;14.80;1.00;;;;;;5107100;28;20170;-74
2022/04/19 09:26:42;;;;;;;6.60;4.23;;;14.90;1.00;;;;;;5115325;28;20235;-74
2022/04/19 09:29:22;;;;;;;6.37;4.23;;;14.90;1.00;;;;;;5114793;28;20683;-74
2022/04/19 09:31:52;;;;;;;6.77;4.07;;;15.00;1.00;;;;;;5114863;28;20186;-74
2022/04/19 09:34:25;;;;;;;6.57;3.90;;;15.10;1.00;;;;;;5115154;28;20164;-74
2022/04/19 09:37:11;;;;;;;4.47;3.30;;;15.20;1.00;;;;;;5114739;28;20187;-74
2022/04/19 09:39:41;;;;;;;5.87;3.80;;;15.30;1.00;;;;;;5114905;28;20658;-74
2022/04/19 09:42:09;;;;;;;5.53;3.47;;;15.40;99.90;;;;;;5114751;28;20255;-74
2022/04/19 09:44:39;;;;;;;5.10;3.50;;;15.50;99.90;;;;;;5096368;28;20185;-74
2022/04/19 09:47:12;;;;;;;7.00;3.73;;;15.50;99.90;;;;;;5114624;28;20257;-74
2022/04/19 09:49:44;;;;;;;5.00;3.33;;;15.60;99.90;;;;;;5114456;28;20650;-74
2022/04/19 09:52:22;;;;;;;3.00;2.70;;;15.60;99.90;;;;;;5096166;28;20197;-74
2022/04/19 09:55:01;;;;;;;4.17;2.80;;;15.70;99.90;;;;;;5114559;28;20664;-74
2022/04/19 09:57:35;;;;;;;5.10;3.37;;;15.70;99.90;;;;;;5096107;28;20185;-74
2022/04/19 10:00:03;;;;;;;7.43;3.30;;;15.70;99.90;;;;;;5096046;28;20187;-75
2022/04/19 10:08:20;;;;;;;3.83;2.40;;;15.90;99.90;;;;;;5114442;28;20208;-74
2022/04/19 10:10:48;;;;;;;3.73;2.60;;;16.00;99.90;;;;;;5114382;28;20623;-72
2022/04/19 10:13:17;;;;;;;8.17;2.97;;;16.00;99.90;;;;;;5095789;28;20178;-74
2022/04/19 10:15:42;;;;;;;3.83;2.50;;;16.00;99.90;;;;;;5113988;28;20572;-74
2022/04/19 10:18:08;;;;;;;7.13;3.70;;;16.10;99.90;;;;;;5114265;28;20176;-74
2022/04/19 10:20:39;;;;;;;5.33;2.77;;;16.10;99.90;;;;;;5113893;28;20748;-74
2022/04/19 10:23:09;;;;;;;5.47;2.63;;;16.10;99.90;;;;;;5114209;28;20164;-74
2022/04/19 10:25:45;;;;;;;2.33;2.07;;;16.10;99.90;;;;;;5113863;28;20227;-74
2022/04/19 10:28:24;;;;;;;3.20;2.47;;;16.20;99.90;;;;;;5114036;28;20716;-74
2022/04/19 10:30:52;;;;;;;4.23;3.07;;;16.20;99.90;;;;;;5095546;28;20233;-74
2022/04/19 10:33:50;;;;;;;4.60;3.00;;;16.20;99.90;;;;;;5113745;28;20176;-74
2022/04/19 10:36:20;;;;;;;2.97;2.37;;;16.30;99.90;;;;;;5095359;28;20193;-74
2022/04/19 10:39:08;;;;;;;3.90;2.53;;;16.40;99.90;;;;;;5113725;28;20166;-74
2022/04/19 10:41:48;;;;;;;4.20;2.90;;;16.50;99.90;;;;;;5103015;28;20727;-74
2022/04/19 10:44:45;;;;;;;4.27;2.70;;;16.50;99.90;;;;;;5113594;28;20656;-74
2022/04/19 10:47:19;;;;;;;3.77;3.37;;;16.60;99.90;;;;;;5095371;28;20170;-74
2022/04/19 10:50:01;;;;;;;6.50;4.10;;;16.60;99.90;;;;;;5113753;28;20216;-74
2022/04/19 10:52:44;;;;;;;6.53;3.73;;;16.60;99.90;;;;;;5113380;28;20256;-74
2022/04/19 10:55:22;;;;;;;5.20;3.80;;;16.70;99.90;;;;;;5114062;28;20161;-74
2022/04/19 11:00:34;;;;;;;4.63;3.53;;;16.70;99.90;;;;;;5112816;28;20204;-75
2022/04/19 11:03:18;;;;;;;6.07;3.57;;;16.80;99.90;;;;;;5113630;28;20170;-74
2022/04/19 11:05:55;;;;;;;5.03;3.40;;;16.70;99.90;;;;;;5113390;28;20215;-74
2022/04/19 11:08:26;;;;;;;6.57;3.87;;;16.80;99.90;;;;;;5095135;28;20574;-74
2022/04/19 11:10:52;;;;;;;8.37;3.57;;;16.80;99.90;;;;;;5094993;28;20197;-74
2022/04/19 11:13:19;;;;;;;3.80;3.00;;;16.90;99.90;;;;;;5113326;28;20720;-74
2022/04/19 11:16:05;;;;;;;5.97;3.60;;;16.90;99.90;;;;;;5099333;28;20196;-74
2022/04/19 11:18:32;;;;;;;7.30;3.07;;;17.10;99.90;;;;;;5106421;28;20633;-74
2022/04/19 11:21:00;;;;;;;4.80;3.73;;;17.10;99.90;;;;;;5117285;28;20198;-74
2022/04/19 11:23:27;;;;;;;5.80;3.70;;;17.10;99.90;;;;;;5117745;28;20204;-74
2022/04/19 11:25:56;;;;;;;5.87;3.73;;;17.10;99.90;;;;;;5117343;28;20181;-74
2022/04/19 11:28:26;;;;;;;7.27;4.20;;;17.10;99.90;;;;;;5117198;28;20208;-75
2022/04/19 11:30:55;;;;;;;7.50;4.00;;;17.10;99.90;;;;;;5099019;28;20197;-74
2022/04/19 11:33:25;;;;;;;5.17;3.77;;;17.10;99.90;;;;;;5117465;28;20252;-74
2022/04/19 11:36:01;;;;;;;6.83;4.10;;;17.10;99.90;;;;;;5117140;28;20656;-74
2022/04/19 11:38:32;;;;;;;4.20;3.10;;;17.10;99.90;;;;;;5117062;28;20656;-74
2022/04/19 11:46:45;;;;;;;5.83;3.30;;;17.10;99.90;;;;;;5117356;28;20173;-74
2022/04/19 11:49:19;;;;;;;5.97;3.63;;;17.20;99.90;;;;;;5117177;28;20213;-74
2022/04/19 11:51:46;;;;;;;5.13;3.90;;;17.30;99.90;;;;;;5116791;28;20186;-74
2022/04/19 11:54:19;;;;;;;6.60;3.97;;;17.40;99.90;;;;;;5098551;28;20645;-74
2022/04/19 11:56:45;;;;;;;4.53;3.40;;;17.60;99.90;;;;;;5116804;28;20219;-74
2022/04/19 11:59:11;;;;;;;9.13;3.87;;;17.60;99.90;;;;;;5116897;28;20185;-74
2022/04/19 12:01:36;;;;;;;5.53;3.90;;;17.60;99.90;;;;;;5116743;28;20696;-74
2022/04/19 12:04:11;;;;;;;10.10;4.10;;;17.70;99.90;;;;;;5116894;28;20181;-74
2022/04/19 12:06:37;;;;;;;6.20;4.60;;;17.70;99.90;;;;;;5116562;28;20581;-74
2022/04/19 12:09:03;;;;;;;7.60;4.67;;;17.70;99.90;;;;;;5108736;28;20289;-76
2022/04/19 12:11:30;;;;;;;9.20;4.30;;;17.70;99.90;;;;;;5077781;28;20339;-74
2022/04/19 12:13:58;;;;;;;7.23;4.50;;;17.70;99.90;;;;;;5096221;28;20188;-74
2022/04/19 12:16:39;;;;;;;8.00;4.27;;;17.70;99.90;;;;;;5096267;28;20193;-74
2022/04/19 12:19:14;;;;;;;7.33;4.43;;;17.80;99.90;;;;;;5096269;28;20188;-74
2022/04/19 12:21:46;;;;;;;4.63;3.80;;;17.90;99.90;;;;;;5104933;28;20209;-74
2022/04/19 12:24:28;;;;;;;7.20;4.00;;;17.90;99.90;;;;;;5097451;28;20185;-74
2022/04/19 12:27:06;;;;;;;8.13;4.33;;;17.90;99.90;;;;;;5116319;28;20169;-74
2022/04/19 12:29:32;;;;;;;5.23;4.13;;;17.90;99.90;;;;;;5117765;28;20242;-75
2022/04/19 12:32:00;;;;;;;5.83;4.10;;;18.00;99.90;;;;;;5119947;28;20193;-75
2022/04/19 12:34:37;;;;;;;7.13;4.63;;;18.00;99.90;;;;;;5100638;28;20185;-74
2022/04/19 12:37:12;;;;;;;6.97;4.37;;;18.10;99.90;;;;;;5120147;28;20254;-75
2022/04/19 12:39:37;;;;;;;6.50;4.23;;;18.00;99.90;;;;;;5118428;28;20180;-75
2022/04/19 12:42:07;;;;;;;20.30;5.67;;;18.00;99.90;;;;;;5119360;28;20197;-74
2022/04/19 12:44:35;;;;;;;8.90;4.23;;;18.00;99.90;;;;;;5118505;28;20657;-75
2022/04/19 12:47:04;;;;;;;5.23;4.03;;;18.00;99.90;;;;;;5118249;28;20173;-76
2022/04/19 12:49:31;;;;;;;6.90;3.70;;;18.10;99.90;;;;;;5119533;28;20200;-76
2022/04/19 12:51:58;;;;;;;5.00;3.30;;;18.00;99.90;;;;;;5119302;28;20567;-74
2022/04/19 12:54:28;;;;;;;6.40;4.00;;;18.10;99.90;;;;;;5100900;28;20725;-75
2022/04/19 12:57:05;;;;;;;5.43;4.17;;;18.20;99.90;;;;;;5121166;28;20169;-75
2022/04/19 12:59:32;;;;;;;6.00;4.03;;;18.10;99.90;;;;;;5120836;28;20169;-75
2022/04/19 13:01:59;;;;;;;6.97;4.00;;;18.20;99.90;;;;;;5119626;28;20198;-75
2022/04/19 13:04:25;;;;;;;5.33;3.67;;;18.10;99.90;;;;;;5119565;28;20178;-75
2022/04/19 13:12:31;;;;;;;13.53;7.00;;;18.30;99.90;;;;;;5064358;28;20267;-75
2022/04/19 13:14:59;;;;;;;6.47;3.93;;;18.30;99.90;;;;;;5119277;28;20181;-72
2022/04/19 13:17:30;;;;;;;5.20;3.50;;;18.20;99.90;;;;;;5119473;28;20178;-73
2022/04/19 13:19:56;;;;;;;5.70;3.90;;;18.30;99.90;;;;;;5120306;28;20174;-74
2022/04/19 13:22:22;;;;;;;4.03;3.20;;;18.30;99.90;;;;;;5119964;28;20679;-73
2022/04/19 13:24:50;;;;;;;3.63;3.07;;;18.50;99.90;;;;;;5119804;28;20174;-73
2022/04/19 13:27:16;;;;;;;7.90;3.87;;;18.40;99.90;;;;;;5118777;28;20204;-75
2022/04/19 13:29:42;;;;;;;7.20;3.80;;;18.40;99.90;;;;;;5119565;28;20206;-74
2022/04/19 13:32:08;;;;;;;5.97;3.50;;;18.50;99.90;;;;;;5118792;28;20223;-74
2022/04/19 13:34:34;;;;;;;5.30;3.37;;;18.50;99.90;;;;;;5119217;28;20580;-75
2022/04/19 13:37:00;;;;;;;5.30;3.17;;;18.60;99.90;;;;;;5119289;28;20319;-76
2022/04/19 13:39:27;;;;;;;4.83;3.27;;;18.60;99.90;;;;;;5100711;28;20185;-75
2022/04/19 13:41:53;;;;;;;3.73;2.97;;;18.60;99.90;;;;;;5119112;28;20197;-75
2022/04/19 13:44:20;;;;;;;3.63;3.00;;;18.60;99.90;;;;;;5119665;28;20174;-75
2022/04/19 13:46:46;;;;;;;5.70;3.17;;;18.60;99.90;;;;;;5118783;28;20177;-75